Time;durP1;ratioP1;P1;durP2;ratioP2;P2;SDS_P1;SDS_P2;PMS_P1;PMS_P2;Temp;Humidity;BMP_temperature;BMP_pressure;BME280_temperature;BME280_humidity;BME280_pressure;Samples;Min_cycle;Max_cycle;Signal;HPM_P1;HPM_P2
2022/04/21 00:00:16;;;;;;;12.43;7.60;;;8.20;99.90;;;;;;5071584;28;20036;-55
2022/04/21 00:02:43;;;;;;;13.27;8.10;;;8.20;99.90;;;;;;5073330;28;20404;-55
2022/04/21 00:05:10;;;;;;;13.55;8.02;;;8.20;99.90;;;;;;5074980;28;20044;-55
2022/04/21 00:07:36;;;;;;;13.32;7.70;;;8.20;99.90;;;;;;5074682;28;20485;-55
2022/04/21 00:10:04;;;;;;;14.38;8.10;;;8.20;99.90;;;;;;5075188;28;20479;-55
2022/04/21 00:12:29;;;;;;;16.27;8.23;;;8.20;99.90;;;;;;5074741;28;20488;-52
2022/04/21 00:14:55;;;;;;;14.10;8.23;;;8.20;99.90;;;;;;5074739;28;20132;-55
2022/04/21 00:17:22;;;;;;;16.42;8.63;;;8.10;99.90;;;;;;5074624;28;20471;-55
2022/04/21 00:19:48;;;;;;;15.23;8.27;;;8.10;99.90;;;;;;5074645;28;20041;-55
2022/04/21 00:24:58;;;;;;;15.73;8.30;;;8.20;99.90;;;;;;5054699;28;20056;-56
2022/04/21 00:27:23;;;;;;;14.43;8.65;;;8.10;99.90;;;;;;5054536;28;20040;-55
2022/04/21 00:29:49;;;;;;;14.75;8.45;;;8.10;99.90;;;;;;5054488;28;20037;-56
2022/04/21 00:32:15;;;;;;;15.43;8.88;;;8.10;99.90;;;;;;5054267;28;20037;-56
2022/04/21 00:34:41;;;;;;;15.73;8.73;;;8.00;99.90;;;;;;5069595;28;20087;-55
2022/04/21 00:37:07;;;;;;;14.60;9.40;;;8.00;99.90;;;;;;5054433;28;20037;-55
2022/04/21 00:39:32;;;;;;;14.02;8.98;;;7.90;99.90;;;;;;5054239;28;20108;-55
2022/04/21 00:41:59;;;;;;;15.77;8.85;;;7.90;99.90;;;;;;5053839;28;20496;-55
2022/04/21 00:44:29;;;;;;;14.88;9.90;;;7.90;99.90;;;;;;5066255;28;20051;-53
2022/04/21 00:47:00;;;;;;;14.02;8.93;;;7.90;99.90;;;;;;5072847;28;20569;-55
2022/04/21 00:49:27;;;;;;;17.25;9.30;;;7.90;99.90;;;;;;5073878;28;20051;-55
2022/04/21 00:51:54;;;;;;;17.10;8.70;;;7.80;99.90;;;;;;5074211;28;20033;-55
2022/04/21 00:54:20;;;;;;;16.52;9.82;;;7.80;99.90;;;;;;5072547;28;20072;-55
2022/04/21 00:56:47;;;;;;;16.88;9.88;;;7.70;99.90;;;;;;5072735;28;20076;-55
2022/04/21 00:59:13;;;;;;;17.23;9.98;;;7.80;99.90;;;;;;5073914;28;20037;-55
2022/04/21 01:04:24;;;;;;;16.73;9.48;;;7.70;99.90;;;;;;5073786;28;20064;-55
2022/04/21 01:06:55;;;;;;;16.92;9.48;;;7.80;99.90;;;;;;5073962;28;20070;-55
2022/04/21 01:09:21;;;;;;;16.27;10.43;;;7.80;99.90;;;;;;5073665;28;20048;-55
2022/04/21 01:11:47;;;;;;;18.55;10.98;;;7.80;99.90;;;;;;5073411;28;20048;-56
2022/04/21 01:14:17;;;;;;;16.80;11.25;;;7.80;99.90;;;;;;5072921;28;20158;-55
2022/04/21 01:16:43;;;;;;;19.25;11.30;;;7.80;99.90;;;;;;5073639;28;20133;-55
2022/04/21 01:19:09;;;;;;;17.55;10.52;;;7.70;99.90;;;;;;5073378;28;20033;-55
2022/04/21 01:21:35;;;;;;;19.05;11.75;;;7.80;99.90;;;;;;5073153;28;20119;-54
2022/04/21 01:24:01;;;;;;;17.30;10.55;;;7.90;99.90;;;;;;5057167;28;20048;-55
2022/04/21 01:26:34;;;;;;;18.42;10.95;;;7.80;99.90;;;;;;5053434;28;20091;-55
2022/04/21 01:29:02;;;;;;;18.63;11.25;;;7.60;99.90;;;;;;5051902;28;20478;-55
2022/04/21 01:31:27;;;;;;;17.45;11.07;;;7.70;99.90;;;;;;5053514;28;20389;-53
2022/04/21 01:33:53;;;;;;;23.15;12.60;;;7.70;99.90;;;;;;5053219;28;20041;-55
2022/04/21 01:36:19;;;;;;;19.67;12.05;;;7.70;99.90;;;;;;5053299;28;20421;-56
2022/04/21 01:41:29;;;;;;;17.50;10.63;;;7.60;99.90;;;;;;5052828;28;20064;-55
2022/04/21 01:43:55;;;;;;;20.05;12.00;;;7.60;99.90;;;;;;5061208;28;20040;-55
2022/04/21 01:46:20;;;;;;;20.73;12.20;;;7.60;99.90;;;;;;5073012;28;20106;-55
2022/04/21 01:48:46;;;;;;;19.77;12.55;;;7.50;99.90;;;;;;5072825;28;20050;-55
2022/04/21 01:51:12;;;;;;;21.45;12.40;;;7.50;99.90;;;;;;5072590;28;20040;-55
2022/04/21 01:53:37;;;;;;;19.83;12.05;;;7.40;99.90;;;;;;5072742;28;20036;-55
2022/04/21 01:56:03;;;;;;;19.95;11.93;;;7.40;99.90;;;;;;5071355;28;20127;-55
2022/04/21 01:58:29;;;;;;;20.20;10.85;;;7.40;99.90;;;;;;5072683;28;20055;-55
2022/04/21 02:00:55;;;;;;;17.52;11.50;;;7.50;99.90;;;;;;5072706;28;20041;-55
2022/04/21 02:03:20;;;;;;;19.23;11.85;;;7.50;99.90;;;;;;5072771;28;20037;-55
2022/04/21 02:05:46;;;;;;;18.85;11.90;;;7.50;99.90;;;;;;5072600;28;20068;-55
2022/04/21 02:08:12;;;;;;;21.48;12.13;;;7.40;99.90;;;;;;5072550;28;20435;-54
2022/04/21 02:10:38;;;;;;;20.08;12.43;;;7.40;99.90;;;;;;5072455;28;20075;-55
2022/04/21 02:13:05;;;;;;;19.30;11.73;;;7.50;99.90;;;;;;5072413;28;20153;-56
2022/04/21 02:15:31;;;;;;;19.98;12.15;;;7.50;99.90;;;;;;5072507;28;20048;-54
2022/04/21 02:17:56;;;;;;;17.55;11.32;;;7.40;99.90;;;;;;5072430;28;20097;-55
2022/04/21 02:20:22;;;;;;;16.58;10.95;;;7.50;99.90;;;;;;5072193;28;20071;-54
2022/04/21 02:22:48;;;;;;;21.17;12.63;;;7.40;99.90;;;;;;5066149;28;20041;-54
2022/04/21 02:25:15;;;;;;;19.10;12.18;;;7.50;99.90;;;;;;5051449;28;20047;-55
2022/04/21 02:27:44;;;;;;;18.63;10.98;;;7.50;99.90;;;;;;5067872;28;20055;-55
2022/04/21 02:30:12;;;;;;;17.88;11.18;;;7.50;99.90;;;;;;5052518;28;20044;-56
2022/04/21 02:32:38;;;;;;;18.55;12.25;;;7.40;99.90;;;;;;5052195;28;20392;-52
2022/04/21 02:35:05;;;;;;;18.63;11.65;;;7.40;99.90;;;;;;5052078;28;20037;-55
2022/04/21 02:37:41;;;;;;;18.85;12.38;;;7.40;99.90;;;;;;5052101;28;20121;-55
2022/04/21 02:40:09;;;;;;;20.35;11.80;;;7.40;99.90;;;;;;5067279;28;20045;-55
2022/04/21 02:42:35;;;;;;;19.30;11.75;;;7.40;99.90;;;;;;5052126;28;20045;-55
2022/04/21 02:45:00;;;;;;;18.75;11.95;;;7.40;99.90;;;;;;5069264;28;20063;-56
2022/04/21 02:47:26;;;;;;;16.85;11.27;;;7.30;99.90;;;;;;5072151;28;20044;-55
2022/04/21 02:49:53;;;;;;;17.90;11.85;;;7.30;99.90;;;;;;5070758;28;20127;-55
2022/04/21 02:52:20;;;;;;;17.23;11.02;;;7.30;99.90;;;;;;5072413;28;20044;-54
2022/04/21 02:57:30;;;;;;;16.77;11.40;;;7.30;99.90;;;;;;5072055;28;20087;-56
2022/04/21 03:00:02;;;;;;;18.90;11.00;;;7.40;99.90;;;;;;5070707;28;20040;-56
2022/04/21 03:02:27;;;;;;;17.00;11.13;;;7.30;99.90;;;;;;5071941;28;20489;-55
2022/04/21 03:04:54;;;;;;;16.70;9.93;;;7.30;99.90;;;;;;5072330;28;20093;-55
2022/04/21 03:07:21;;;;;;;17.75;11.18;;;7.20;99.90;;;;;;5070598;28;20048;-55
2022/04/21 03:09:47;;;;;;;17.38;10.80;;;7.30;99.90;;;;;;5071832;28;20045;-55
2022/04/21 03:12:13;;;;;;;16.10;10.20;;;7.30;99.90;;;;;;5071995;28;20049;-54
2022/04/21 03:14:40;;;;;;;15.27;9.95;;;7.30;99.90;;;;;;5070435;28;20044;-54
2022/04/21 03:17:08;;;;;;;16.98;10.45;;;7.20;99.90;;;;;;5071759;28;20078;-55
2022/04/21 03:19:34;;;;;;;16.83;10.40;;;7.20;99.90;;;;;;5071688;28;20189;-54
2022/04/21 03:24:45;;;;;;;15.38;10.30;;;7.20;99.90;;;;;;5031779;28;20056;-54
2022/04/21 03:27:11;;;;;;;15.25;9.82;;;7.10;99.90;;;;;;5031708;28;20033;-55
2022/04/21 03:29:39;;;;;;;14.85;9.20;;;7.10;99.90;;;;;;5031639;28;20494;-55
2022/04/21 03:32:09;;;;;;;17.13;9.95;;;7.10;99.90;;;;;;5031790;28;20052;-55
2022/04/21 03:34:42;;;;;;;15.77;9.85;;;7.10;99.90;;;;;;5031735;28;20045;-55
2022/04/21 03:37:10;;;;;;;16.58;9.55;;;7.10;99.90;;;;;;5034434;28;20604;-54
2022/04/21 03:39:37;;;;;;;14.73;9.30;;;7.00;99.90;;;;;;5035513;28;20037;-54
2022/04/21 03:42:07;;;;;;;15.13;9.45;;;7.00;99.90;;;;;;5035083;28;20494;-56
2022/04/21 03:44:39;;;;;;;14.30;8.82;;;7.00;99.90;;;;;;5062181;28;20048;-54
2022/04/21 03:47:06;;;;;;;16.00;8.93;;;7.00;99.90;;;;;;5075358;28;20052;-55
2022/04/21 03:49:32;;;;;;;14.18;8.93;;;6.90;99.90;;;;;;5075231;28;20392;-55
2022/04/21 03:51:57;;;;;;;14.65;8.48;;;6.90;99.90;;;;;;5073880;28;20043;-56
2022/04/21 03:54:24;;;;;;;13.75;9.00;;;6.90;99.90;;;;;;5074942;28;20175;-55
2022/04/21 03:56:50;;;;;;;15.80;9.93;;;6.90;99.90;;;;;;5073899;28;20393;-54
2022/04/21 03:59:20;;;;;;;13.57;8.63;;;6.80;99.90;;;;;;5075198;28;20040;-55
2022/04/21 04:01:46;;;;;;;14.85;8.95;;;6.80;99.90;;;;;;5074839;28;20568;-55
2022/04/21 04:04:13;;;;;;;13.70;8.95;;;6.80;99.90;;;;;;5074847;28;20075;-56
2022/04/21 04:12:10;;;;;;;14.70;8.60;;;6.70;99.90;;;;;;5074954;28;20094;-54
2022/04/21 04:14:37;;;;;;;14.60;9.00;;;6.70;99.90;;;;;;5074749;28;20123;-55
2022/04/21 04:17:05;;;;;;;15.32;9.30;;;6.70;99.90;;;;;;5074718;28;20037;-55
2022/04/21 04:19:31;;;;;;;13.60;7.93;;;6.60;99.90;;;;;;5074585;28;20052;-55
2022/04/21 04:21:57;;;;;;;16.33;8.95;;;6.70;99.90;;;;;;5074779;28;20051;-56
2022/04/21 04:24:23;;;;;;;13.30;8.25;;;6.60;99.90;;;;;;5055599;28;20493;-56
2022/04/21 04:26:48;;;;;;;17.23;9.50;;;6.60;99.90;;;;;;5054593;28;20063;-55
2022/04/21 04:29:15;;;;;;;15.25;8.48;;;6.60;99.90;;;;;;5054471;28;20054;-55
2022/04/21 04:31:41;;;;;;;13.60;8.60;;;6.60;99.90;;;;;;5054491;28;20402;-56
2022/04/21 04:34:08;;;;;;;14.88;8.95;;;6.60;99.90;;;;;;5054378;28;20051;-55
2022/04/21 04:36:34;;;;;;;13.20;7.95;;;6.60;99.90;;;;;;5054125;28;20043;-53
2022/04/21 04:39:00;;;;;;;14.02;8.90;;;6.60;99.90;;;;;;5054258;28;20133;-56
2022/04/21 04:44:09;;;;;;;13.63;7.90;;;6.60;99.90;;;;;;5064297;28;20051;-55
2022/04/21 04:46:35;;;;;;;15.95;8.88;;;6.60;99.90;;;;;;5074002;28;20033;-54
2022/04/21 04:49:02;;;;;;;13.15;8.52;;;6.60;99.90;;;;;;5073219;28;20055;-55
2022/04/21 04:51:28;;;;;;;13.27;8.20;;;6.70;99.90;;;;;;5074466;28;20044;-56
2022/04/21 04:53:54;;;;;;;13.45;8.82;;;6.70;99.90;;;;;;5055919;28;20044;-55
2022/04/21 04:56:24;;;;;;;16.48;9.95;;;6.70;99.90;;;;;;5072747;28;20039;-56
2022/04/21 04:58:51;;;;;;;14.10;9.05;;;6.70;99.90;;;;;;5073946;28;20076;-56
2022/04/21 05:01:26;;;;;;;16.60;9.02;;;6.70;99.90;;;;;;5074303;28;20041;-54
2022/04/21 05:04:00;;;;;;;15.02;8.60;;;6.80;99.90;;;;;;5073989;28;20036;-55
2022/04/21 05:06:26;;;;;;;15.48;9.23;;;6.80;99.90;;;;;;5072446;28;20106;-55
2022/04/21 05:08:51;;;;;;;14.88;9.40;;;6.90;99.90;;;;;;5072319;28;20045;-56
2022/04/21 05:11:17;;;;;;;15.35;8.07;;;6.90;99.90;;;;;;5073483;28;20044;-55
2022/04/21 05:13:44;;;;;;;13.98;8.93;;;7.00;99.90;;;;;;5073625;28;20036;-56
2022/04/21 05:16:10;;;;;;;14.40;8.38;;;7.00;99.90;;;;;;5073413;28;20465;-55
2022/04/21 05:18:36;;;;;;;13.63;8.48;;;7.00;99.90;;;;;;5073530;28;20119;-52
2022/04/21 05:21:02;;;;;;;15.95;9.25;;;7.00;99.90;;;;;;5073364;28;20480;-56
2022/04/21 05:23:33;;;;;;;16.00;8.90;;;7.10;99.90;;;;;;5061921;28;20043;-56
2022/04/21 05:26:00;;;;;;;15.43;8.73;;;7.10;99.90;;;;;;5053415;28;20047;-56
2022/04/21 05:28:26;;;;;;;16.20;10.32;;;7.20;99.90;;;;;;5051864;28;20045;-55
2022/04/21 05:31:02;;;;;;;16.98;9.63;;;7.20;99.90;;;;;;5051605;28;20103;-56
2022/04/21 05:33:30;;;;;;;14.65;9.45;;;7.30;99.90;;;;;;5051705;28;20055;-56
2022/04/21 05:35:57;;;;;;;14.50;9.40;;;7.30;99.90;;;;;;5051750;28;20052;-55
2022/04/21 05:38:23;;;;;;;16.58;10.32;;;7.40;99.90;;;;;;5051769;28;20489;-56
2022/04/21 05:40:50;;;;;;;13.15;8.88;;;7.40;99.90;;;;;;5051233;28;20539;-56
2022/04/21 05:43:20;;;;;;;14.50;8.68;;;7.40;99.90;;;;;;5053835;28;20087;-56
2022/04/21 05:45:47;;;;;;;16.85;9.80;;;7.40;99.90;;;;;;5071449;28;20080;-57
2022/04/21 05:48:14;;;;;;;15.30;9.15;;;7.60;99.90;;;;;;5070449;28;20052;-56
2022/04/21 05:50:42;;;;;;;16.45;9.60;;;7.60;99.90;;;;;;5071561;28;20386;-56
2022/04/21 05:53:14;;;;;;;15.38;9.65;;;7.60;99.90;;;;;;5071423;28;20048;-57
2022/04/21 05:55:40;;;;;;;15.10;9.27;;;7.80;99.90;;;;;;5071272;28;20055;-57
2022/04/21 05:58:05;;;;;;;16.27;9.15;;;7.80;99.90;;;;;;5071123;28;20045;-56
2022/04/21 06:00:31;;;;;;;15.95;9.18;;;7.90;99.90;;;;;;5071275;28;20028;-57
2022/04/21 06:02:57;;;;;;;13.65;8.45;;;8.00;99.90;;;;;;5070135;28;20170;-57
2022/04/21 06:05:23;;;;;;;15.85;9.23;;;8.00;99.90;;;;;;5071277;28;20041;-57
2022/04/21 06:07:49;;;;;;;12.70;8.35;;;8.10;99.90;;;;;;5070872;28;20036;-56
2022/04/21 06:10:15;;;;;;;13.32;8.63;;;8.20;99.90;;;;;;5071049;28;20049;-57
2022/04/21 06:12:40;;;;;;;15.27;8.35;;;8.30;99.90;;;;;;5071018;28;20551;-57
2022/04/21 06:15:06;;;;;;;16.13;9.20;;;8.40;99.90;;;;;;5071100;28;20394;-57
2022/04/21 06:17:32;;;;;;;14.90;8.18;;;8.50;99.90;;;;;;5070909;28;20190;-57
2022/04/21 06:19:57;;;;;;;16.27;8.35;;;8.60;99.90;;;;;;5070866;28;20044;-56
2022/04/21 06:22:23;;;;;;;15.05;9.15;;;8.70;99.90;;;;;;5066810;28;20090;-57
2022/04/21 06:24:49;;;;;;;14.10;8.55;;;8.80;99.90;;;;;;5050632;28;20047;-56
2022/04/21 06:27:14;;;;;;;12.93;7.82;;;8.80;99.90;;;;;;5051092;28;20037;-57
2022/04/21 06:29:40;;;;;;;15.75;8.20;;;8.90;99.90;;;;;;5050893;28;20084;-57
2022/04/21 06:32:06;;;;;;;11.70;7.60;;;8.90;99.90;;;;;;5051036;28;20076;-56
2022/04/21 06:34:32;;;;;;;12.18;7.70;;;9.00;99.90;;;;;;5050796;28;20052;-57
2022/04/21 06:37:00;;;;;;;13.73;7.88;;;9.10;99.90;;;;;;5050722;28;20037;-56
2022/04/21 06:39:25;;;;;;;11.80;7.82;;;9.10;99.90;;;;;;5050490;28;20052;-56
2022/04/21 06:41:51;;;;;;;12.75;7.55;;;9.20;99.90;;;;;;5050574;28;20056;-57
2022/04/21 06:49:45;;;;;;;14.05;7.82;;;9.40;99.90;;;;;;5070524;28;20106;-57
2022/04/21 06:52:11;;;;;;;13.45;7.40;;;9.50;99.90;;;;;;5070449;28;20447;-57
2022/04/21 06:54:37;;;;;;;10.77;6.80;;;9.70;99.90;;;;;;5070521;28;20072;-56
2022/04/21 06:57:03;;;;;;;11.20;6.95;;;9.70;99.90;;;;;;5070760;28;20064;-57
2022/04/21 06:59:28;;;;;;;10.50;7.18;;;9.90;99.90;;;;;;5070577;28;20438;-57
2022/04/21 07:01:54;;;;;;;13.32;7.00;;;9.90;99.90;;;;;;5070404;28;20090;-57
2022/04/21 07:04:20;;;;;;;11.93;6.78;;;10.10;99.90;;;;;;5070458;28;20127;-57
2022/04/21 07:06:46;;;;;;;12.05;6.28;;;10.20;99.90;;;;;;5070488;28;20622;-57
2022/04/21 07:09:12;;;;;;;10.25;6.13;;;10.30;99.90;;;;;;5070362;28;20062;-57
2022/04/21 07:11:38;;;;;;;10.23;5.70;;;10.40;99.90;;;;;;5072463;28;20089;-57
2022/04/21 07:14:04;;;;;;;9.65;5.85;;;10.50;99.90;;;;;;5074407;28;20043;-57
2022/04/21 07:16:30;;;;;;;12.27;6.18;;;10.60;99.90;;;;;;5074296;28;20048;-56
2022/04/21 07:18:56;;;;;;;11.80;6.13;;;10.60;99.90;;;;;;5072975;28;20036;-57
2022/04/21 07:21:22;;;;;;;11.93;7.22;;;10.80;99.90;;;;;;5074289;28;20119;-57
2022/04/21 07:23:48;;;;;;;12.38;7.47;;;10.70;99.90;;;;;;5060092;28;20036;-57
2022/04/21 07:26:13;;;;;;;12.10;7.00;;;10.80;99.90;;;;;;5054181;28;20051;-57
2022/04/21 07:28:41;;;;;;;13.25;7.57;;;10.90;99.90;;;;;;5054132;28;20063;-57
2022/04/21 07:31:07;;;;;;;13.50;6.78;;;11.00;99.90;;;;;;5053959;28;20052;-57
2022/04/21 07:33:32;;;;;;;10.48;6.28;;;11.20;99.90;;;;;;5054008;28;20037;-57
2022/04/21 07:35:58;;;;;;;9.98;6.22;;;11.20;99.90;;;;;;5069407;28;20397;-57
2022/04/21 07:38:23;;;;;;;10.02;5.78;;;11.30;99.90;;;;;;5054218;28;20125;-57
2022/04/21 07:40:50;;;;;;;10.85;6.28;;;11.40;99.90;;;;;;5054846;28;20072;-57
2022/04/21 07:43:16;;;;;;;10.32;6.55;;;11.50;99.90;;;;;;5057594;28;20053;-59
2022/04/21 07:45:44;;;;;;;8.52;5.22;;;11.50;99.90;;;;;;5075160;28;20073;-58
2022/04/21 07:48:10;;;;;;;8.73;5.22;;;11.70;99.90;;;;;;5075302;28;20054;-59
2022/04/21 07:50:35;;;;;;;7.60;3.72;;;11.80;99.90;;;;;;5075280;28;20032;-58
2022/04/21 07:53:13;;;;;;;7.05;3.35;;;11.90;99.90;;;;;;5075273;28;20044;-59
2022/04/21 07:55:40;;;;;;;6.43;3.13;;;11.90;99.90;;;;;;5075100;28;20045;-58
2022/04/21 07:58:06;;;;;;;7.18;3.22;;;12.00;99.90;;;;;;5073799;28;20032;-58
2022/04/21 08:00:34;;;;;;;7.05;3.20;;;12.10;99.90;;;;;;5074817;28;20041;-58
2022/04/21 08:03:00;;;;;;;6.97;3.28;;;12.10;99.90;;;;;;5073664;28;20051;-58
2022/04/21 08:05:25;;;;;;;7.18;2.72;;;12.20;99.90;;;;;;5075137;28;20389;-57
2022/04/21 08:07:52;;;;;;;6.43;2.80;;;12.20;99.90;;;;;;5073797;28;20080;-57
2022/04/21 08:10:19;;;;;;;6.03;2.58;;;12.40;99.90;;;;;;5074932;28;20119;-57
2022/04/21 08:12:49;;;;;;;7.30;2.92;;;12.40;99.90;;;;;;5074805;28;20393;-57
2022/04/21 08:15:24;;;;;;;6.88;2.72;;;12.50;99.90;;;;;;5074582;28;20389;-57
2022/04/21 08:17:51;;;;;;;9.05;3.25;;;12.50;99.90;;;;;;5074582;28;20040;-57
2022/04/21 08:20:17;;;;;;;9.32;3.13;;;12.60;99.90;;;;;;5074885;28;20113;-58
2022/04/21 08:22:44;;;;;;;7.35;3.22;;;12.60;99.90;;;;;;5067819;28;20029;-58
2022/04/21 08:33:23;;;;;;;7.25;3.83;;;12.90;99.90;;;;;;5045763;28;20052;-58
2022/04/21 08:35:50;;;;;;;6.13;3.50;;;13.00;99.90;;;;;;5054210;28;20037;-57
2022/04/21 08:38:16;;;;;;;8.00;4.00;;;13.10;99.90;;;;;;5054582;28;20117;-58
2022/04/21 08:40:59;;;;;;;7.80;3.90;;;13.10;99.90;;;;;;5054144;28;20040;-59
2022/04/21 08:43:29;;;;;;;10.30;4.30;;;13.10;99.90;;;;;;5057799;28;20056;-59
2022/04/21 08:45:56;;;;;;;7.07;3.97;;;13.30;99.90;;;;;;5073758;28;20048;-59
2022/04/21 08:48:23;;;;;;;7.47;3.83;;;13.40;99.90;;;;;;5072856;28;20131;-59
2022/04/21 08:50:49;;;;;;;9.93;3.83;;;13.30;99.90;;;;;;5073789;28;20123;-58
2022/04/21 08:53:18;;;;;;;6.82;3.20;;;13.30;99.90;;;;;;5072373;28;20128;-59
2022/04/21 08:55:44;;;;;;;6.15;3.63;;;13.40;99.90;;;;;;5073719;28;20052;-58
2022/04/21 08:58:14;;;;;;;6.80;3.10;;;13.40;99.90;;;;;;5073979;28;20036;-58
2022/04/21 09:00:42;;;;;;;7.22;3.47;;;13.40;99.90;;;;;;5074137;28;20048;-58
2022/04/21 09:03:08;;;;;;;6.90;3.45;;;13.60;99.90;;;;;;5074141;28;20037;-58
2022/04/21 09:05:34;;;;;;;8.32;3.42;;;13.50;99.90;;;;;;5073588;28;20079;-58
2022/04/21 09:08:01;;;;;;;6.05;3.22;;;13.40;99.90;;;;;;5073713;28;20405;-58
2022/04/21 09:10:28;;;;;;;7.30;3.90;;;13.50;99.90;;;;;;5073389;28;20059;-58
2022/04/21 09:12:56;;;;;;;7.07;3.40;;;13.60;99.90;;;;;;5072033;28;20048;-58
2022/04/21 09:15:27;;;;;;;7.80;3.60;;;13.70;99.90;;;;;;5073173;28;20041;-58
2022/04/21 09:18:22;;;;;;;6.88;3.05;;;13.80;99.90;;;;;;5073064;28;20028;-58
2022/04/21 09:20:53;;;;;;;7.32;3.05;;;13.80;99.90;;;;;;5064227;28;20078;-58
2022/04/21 09:23:18;;;;;;;8.68;4.18;;;13.90;99.90;;;;;;5062819;28;20032;-58
2022/04/21 09:25:47;;;;;;;8.93;3.58;;;13.90;99.90;;;;;;5053160;28;20044;-58
2022/04/21 09:28:24;;;;;;;6.72;3.15;;;13.90;99.90;;;;;;5053111;28;20570;-58
2022/04/21 09:30:51;;;;;;;8.70;3.40;;;14.10;99.90;;;;;;5051383;28;20178;-58
2022/04/21 09:33:28;;;;;;;6.45;3.15;;;14.10;99.90;;;;;;5067724;28;20045;-58
2022/04/21 09:35:59;;;;;;;9.05;3.10;;;14.20;99.90;;;;;;5052661;28;20412;-58
2022/04/21 09:38:25;;;;;;;7.00;3.40;;;14.30;99.90;;;;;;5052520;28;20037;-57
2022/04/21 09:40:51;;;;;;;8.25;2.92;;;14.30;99.90;;;;;;5052757;28;20044;-58
2022/04/21 09:43:31;;;;;;;6.80;3.35;;;14.30;99.90;;;;;;5055348;28;20083;-59
2022/04/21 09:46:22;;;;;;;7.82;3.20;;;14.30;99.90;;;;;;5072845;28;20044;-58
2022/04/21 09:48:53;;;;;;;7.95;3.83;;;14.40;99.90;;;;;;5072234;28;20040;-58
2022/04/21 09:51:27;;;;;;;7.20;3.33;;;14.50;99.90;;;;;;5072467;28;20060;-58
2022/04/21 09:54:01;;;;;;;9.40;4.00;;;14.40;99.90;;;;;;5072285;28;20096;-58
2022/04/21 09:56:34;;;;;;;6.95;3.88;;;14.50;99.90;;;;;;5071048;28;20421;-58
2022/04/21 09:59:02;;;;;;;6.85;3.40;;;14.60;99.90;;;;;;5072493;28;20456;-58
2022/04/21 10:01:29;;;;;;;6.78;3.30;;;14.70;99.90;;;;;;5072226;28;20032;-58
2022/04/21 10:03:57;;;;;;;8.85;3.38;;;14.60;99.90;;;;;;5072754;28;20106;-58
2022/04/21 10:06:23;;;;;;;7.75;3.65;;;14.60;99.90;;;;;;5072705;28;20058;-58
2022/04/21 10:08:50;;;;;;;7.50;3.97;;;14.70;99.90;;;;;;5072687;28;20049;-59
2022/04/21 10:11:27;;;;;;;7.00;3.85;;;14.70;99.90;;;;;;5072608;28;20044;-58
2022/04/21 10:13:54;;;;;;;6.90;3.58;;;14.80;99.90;;;;;;5055831;28;20052;-58
2022/04/21 10:16:24;;;;;;;7.40;3.85;;;14.80;99.90;;;;;;5058469;28;20072;-58
2022/04/21 10:18:52;;;;;;;10.02;4.45;;;14.80;99.90;;;;;;5032559;28;20398;-58
2022/04/21 10:21:32;;;;;;;8.60;3.60;;;14.80;99.90;;;;;;5032511;28;20041;-58
2022/04/21 10:23:58;;;;;;;6.57;3.50;;;14.90;99.90;;;;;;5047708;28;20048;-58
2022/04/21 10:26:35;;;;;;;9.35;4.22;;;14.90;99.90;;;;;;5051505;28;20055;-58
2022/04/21 10:29:13;;;;;;;9.57;3.67;;;15.10;99.90;;;;;;5051252;28;20036;-58
2022/04/21 10:32:00;;;;;;;6.35;3.60;;;15.10;99.90;;;;;;5052159;28;20763;-58
2022/04/21 10:34:38;;;;;;;8.63;3.88;;;15.10;99.90;;;;;;5051988;28;20045;-58
2022/04/21 10:37:12;;;;;;;6.90;3.40;;;15.10;99.90;;;;;;5050955;28;20420;-59
2022/04/21 10:39:39;;;;;;;7.03;3.20;;;15.20;99.90;;;;;;5052288;28;20033;-59
2022/04/21 10:42:16;;;;;;;7.47;3.13;;;15.30;99.90;;;;;;5052112;28;20056;-58
2022/04/21 10:44:45;;;;;;;8.23;3.20;;;15.20;99.90;;;;;;5066495;28;20102;-58
2022/04/21 10:47:27;;;;;;;7.15;3.03;;;15.30;99.90;;;;;;5071462;28;20089;-58
2022/04/21 10:50:10;;;;;;;6.13;2.78;;;15.30;99.90;;;;;;5071955;28;20041;-58
2022/04/21 10:57:49;;;;;;;7.03;3.33;;;15.40;99.90;;;;;;5071571;28;20443;-58
2022/04/21 11:00:29;;;;;;;6.68;2.92;;;15.50;99.90;;;;;;5071780;28;20040;-58
2022/04/21 11:03:05;;;;;;;5.75;2.95;;;15.40;99.90;;;;;;5072145;28;20365;-58
2022/04/21 11:05:33;;;;;;;7.38;2.88;;;15.50;99.90;;;;;;5071830;28;20056;-59
2022/04/21 11:08:04;;;;;;;6.30;2.80;;;15.60;99.90;;;;;;5072339;28;20098;-58
2022/04/21 11:10:38;;;;;;;6.78;2.90;;;15.60;99.90;;;;;;5071842;28;20079;-58
2022/04/21 11:13:08;;;;;;;5.75;2.70;;;15.60;99.90;;;;;;5070728;28;20435;-58
2022/04/21 11:15:35;;;;;;;6.90;3.05;;;15.70;99.90;;;;;;5071978;28;20059;-58
2022/04/21 11:18:22;;;;;;;6.65;2.95;;;15.80;99.90;;;;;;5070657;28;20057;-58
2022/04/21 11:20:49;;;;;;;6.28;2.90;;;15.80;99.90;;;;;;5071622;28;20349;-58
2022/04/21 11:23:29;;;;;;;8.50;2.88;;;15.90;99.90;;;;;;5061424;28;20435;-58
2022/04/21 11:26:08;;;;;;;6.32;3.03;;;15.90;99.90;;;;;;5051925;28;20090;-58
2022/04/21 11:28:35;;;;;;;7.38;3.17;;;15.90;99.90;;;;;;5051193;28;20073;-59
2022/04/21 11:31:03;;;;;;;5.43;2.65;;;16.00;99.90;;;;;;5051363;28;20048;-58
2022/04/21 11:33:31;;;;;;;7.63;2.55;;;15.90;99.90;;;;;;5051645;28;20068;-58
2022/04/21 11:36:03;;;;;;;8.05;3.80;;;16.10;99.90;;;;;;5050470;28;20037;-57
2022/04/21 11:38:32;;;;;;;7.68;3.95;;;16.30;99.90;;;;;;5051357;28;20052;-58
2022/04/21 11:41:04;;;;;;;6.55;3.25;;;16.20;99.90;;;;;;5051346;28;20074;-58
2022/04/21 11:43:30;;;;;;;6.72;3.58;;;16.20;99.90;;;;;;5055532;28;20045;-58
2022/04/21 11:45:55;;;;;;;9.15;4.38;;;16.30;99.90;;;;;;5071478;28;20051;-58
2022/04/21 11:48:37;;;;;;;9.05;3.92;;;16.20;99.90;;;;;;5071511;28;20041;-58
2022/04/21 11:51:04;;;;;;;6.32;3.95;;;16.10;99.90;;;;;;5071317;28;20380;-58
2022/04/21 11:53:36;;;;;;;7.55;3.92;;;16.10;99.90;;;;;;5071303;28;20045;-60
2022/04/21 11:56:03;;;;;;;8.82;4.22;;;16.00;99.90;;;;;;5071327;28;20485;-58
2022/04/21 11:58:30;;;;;;;7.75;4.00;;;16.00;99.90;;;;;;5074487;28;20526;-58
2022/04/21 12:06:37;;;;;;;7.72;4.05;;;15.90;99.90;;;;;;5044586;28;20090;-58
2022/04/21 12:09:04;;;;;;;7.90;4.28;;;16.10;99.90;;;;;;5045562;28;20051;-58
2022/04/21 12:11:31;;;;;;;10.45;4.88;;;16.00;99.90;;;;;;5045618;28;20072;-58
2022/04/21 12:13:57;;;;;;;9.00;4.60;;;15.90;99.90;;;;;;5044452;28;20045;-58
2022/04/21 12:16:43;;;;;;;7.93;3.95;;;16.00;99.90;;;;;;5048755;28;20055;-58
2022/04/21 12:19:14;;;;;;;9.02;5.05;;;16.00;99.90;;;;;;5045314;28;20052;-57
2022/04/21 12:21:41;;;;;;;8.37;5.20;;;16.20;99.90;;;;;;5042437;28;20136;-58
2022/04/21 12:24:17;;;;;;;7.32;4.05;;;16.20;99.90;;;;;;5047358;28;20485;-58
2022/04/21 12:26:53;;;;;;;7.43;3.97;;;16.20;99.90;;;;;;5042048;28;20454;-58
2022/04/21 12:29:20;;;;;;;8.68;3.92;;;16.30;99.90;;;;;;5043386;28;20025;-58
2022/04/21 12:31:51;;;;;;;7.95;3.70;;;16.30;99.90;;;;;;5042440;28;20041;-58
2022/04/21 12:34:29;;;;;;;8.68;3.85;;;16.30;99.90;;;;;;5042937;28;20042;-59
2022/04/21 12:37:00;;;;;;;9.00;4.00;;;16.30;99.90;;;;;;5044728;28;20033;-57
2022/04/21 12:39:27;;;;;;;9.60;4.38;;;16.20;99.90;;;;;;5044737;28;20076;-57
2022/04/21 12:41:54;;;;;;;8.63;4.57;;;16.20;99.90;;;;;;5044486;28;20374;-58
2022/04/21 12:44:24;;;;;;;9.18;4.45;;;16.10;99.90;;;;;;5045644;28;20037;-58
2022/04/21 12:47:17;;;;;;;8.07;4.47;;;16.20;99.90;;;;;;5047517;28;20453;-59
2022/04/21 12:49:55;;;;;;;7.68;4.72;;;16.10;99.90;;;;;;5044713;28;20143;-58
2022/04/21 12:52:40;;;;;;;7.40;4.28;;;16.00;99.90;;;;;;5044775;28;20036;-57
2022/04/21 12:55:11;;;;;;;8.50;4.35;;;16.10;99.90;;;;;;5046990;28;20045;-58
2022/04/21 12:57:39;;;;;;;7.70;4.03;;;16.10;99.90;;;;;;5044250;28;20033;-57
2022/04/21 13:00:08;;;;;;;8.20;4.13;;;16.00;99.90;;;;;;5042663;28;20158;-58
2022/04/21 13:02:34;;;;;;;6.97;4.43;;;16.00;99.90;;;;;;5044957;28;20059;-58
2022/04/21 13:05:00;;;;;;;9.15;3.75;;;16.00;99.90;;;;;;5057142;28;20116;-58
2022/04/21 13:07:27;;;;;;;10.00;4.38;;;16.10;99.90;;;;;;5052071;28;20049;-58
2022/04/21 13:09:53;;;;;;;9.05;4.43;;;16.10;99.90;;;;;;5068171;28;20439;-58
2022/04/21 13:12:19;;;;;;;8.68;4.50;;;16.00;99.90;;;;;;5053435;28;20496;-60
2022/04/21 13:14:45;;;;;;;8.18;4.20;;;16.10;99.90;;;;;;5053560;28;20045;-59
2022/04/21 13:17:11;;;;;;;9.02;4.47;;;16.00;99.90;;;;;;5051588;28;20045;-59
2022/04/21 13:19:37;;;;;;;8.88;4.05;;;16.10;99.90;;;;;;5052874;28;20560;-60
2022/04/21 13:22:03;;;;;;;9.02;3.97;;;15.90;99.90;;;;;;5053573;28;20045;-59
2022/04/21 13:24:30;;;;;;;8.98;4.00;;;16.00;99.90;;;;;;5033607;28;20033;-59
2022/04/21 13:26:57;;;;;;;7.50;4.07;;;16.10;99.90;;;;;;5033442;28;20041;-60
2022/04/21 13:29:23;;;;;;;10.88;4.43;;;16.00;99.90;;;;;;5033544;28;20077;-60
2022/04/21 13:34:35;;;;;;;8.07;4.50;;;16.10;99.90;;;;;;5033068;28;20049;-59
2022/04/21 13:37:02;;;;;;;8.57;4.18;;;15.70;99.90;;;;;;5033436;28;20111;-60
2022/04/21 13:39:29;;;;;;;8.20;4.90;;;15.80;99.90;;;;;;5033297;28;20059;-59